sensor_id;sensor_type;location;lat;lon;timestamp;temperature;humidity
14682;DHT22;7429;52.498;13.480;2022-11-15T00:00:25;5.00;99.90
14682;DHT22;7429;52.498;13.480;2022-11-15T00:03:51;5.00;99.90
14682;DHT22;7429;52.498;13.480;2022-11-15T00:07:13;5.00;99.90
14682;DHT22;7429;52.498;13.480;2022-11-15T00:10:55;5.00;99.90
14682;DHT22;7429;52.498;13.480;2022-11-15T00:14:16;5.00;99.90
14682;DHT22;7429;52.498;13.480;2022-11-15T00:17:39;4.90;99.90
14682;DHT22;7429;52.498;13.480;2022-11-15T00:21:06;4.90;99.90
14682;DHT22;7429;52.498;13.480;2022-11-15T00:24:29;4.90;99.90
14682;DHT22;7429;52.498;13.480;2022-11-15T00:27:55;5.00;99.90
14682;DHT22;7429;52.498;13.480;2022-11-15T00:31:16;5.00;99.90
14682;DHT22;7429;52.498;13.480;2022-11-15T00:34:40;4.90;99.90
14682;DHT22;7429;52.498;13.480;2022-11-15T00:38:02;4.90;99.90
14682;DHT22;7429;52.498;13.480;2022-11-15T00:41:23;4.90;99.90
14682;DHT22;7429;52.498;13.480;2022-11-15T00:44:45;4.80;99.90
14682;DHT22;7429;52.498;13.480;2022-11-15T00:48:07;4.80;99.90
14682;DHT22;7429;52.498;13.480;2022-11-15T00:51:30;4.80;99.90
14682;DHT22;7429;52.498;13.480;2022-11-15T00:54:52;4.80;99.90
14682;DHT22;7429;52.498;13.480;2022-11-15T00:58:13;4.80;99.90
14682;DHT22;7429;52.498;13.480;2022-11-15T01:01:35;4.80;99.90
14682;DHT22;7429;52.498;13.480;2022-11-15T01:04:57;4.80;99.90
14682;DHT22;7429;52.498;13.480;2022-11-15T01:08:20;4.80;99.90
14682;DHT22;7429;52.498;13.480;2022-11-15T01:11:42;4.80;99.90
14682;DHT22;7429;52.498;13.480;2022-11-15T01:15:04;4.70;99.90
14682;DHT22;7429;52.498;13.480;2022-11-15T01:18:26;4.70;99.90
14682;DHT22;7429;52.498;13.480;2022-11-15T01:21:48;4.70;99.90
14682;DHT22;7429;52.498;13.480;2022-11-15T01:25:11;4.70;99.90
14682;DHT22;7429;52.498;13.480;2022-11-15T01:28:34;4.70;99.90
14682;DHT22;7429;52.498;13.480;2022-11-15T01:31:56;4.60;99.90
14682;DHT22;7429;52.498;13.480;2022-11-15T01:35:18;4.60;99.90
14682;DHT22;7429;52.498;13.480;2022-11-15T01:38:40;4.60;99.90
14682;DHT22;7429;52.498;13.480;2022-11-15T01:42:03;4.60;99.90
14682;DHT22;7429;52.498;13.480;2022-11-15T01:45:26;4.50;99.90
14682;DHT22;7429;52.498;13.480;2022-11-15T01:48:48;4.60;99.90
14682;DHT22;7429;52.498;13.480;2022-11-15T01:52:15;4.60;99.90
14682;DHT22;7429;52.498;13.480;2022-11-15T01:55:38;4.50;99.90
14682;DHT22;7429;52.498;13.480;2022-11-15T01:59:03;4.50;99.90
14682;DHT22;7429;52.498;13.480;2022-11-15T02:02:26;4.50;99.90
14682;DHT22;7429;52.498;13.480;2022-11-15T02:05:49;4.50;99.90
14682;DHT22;7429;52.498;13.480;2022-11-15T02:09:12;4.40;99.90
14682;DHT22;7429;52.498;13.480;2022-11-15T02:12:34;4.50;99.90
14682;DHT22;7429;52.498;13.480;2022-11-15T02:16:01;4.50;99.90
14682;DHT22;7429;52.498;13.480;2022-11-15T02:19:40;4.50;99.90
14682;DHT22;7429;52.498;13.480;2022-11-15T02:23:38;4.40;99.90
14682;DHT22;7429;52.498;13.480;2022-11-15T02:27:29;4.40;99.90
14682;DHT22;7429;52.498;13.480;2022-11-15T02:31:04;4.40;99.90
14682;DHT22;7429;52.498;13.480;2022-11-15T02:34:34;4.40;99.90
14682;DHT22;7429;52.498;13.480;2022-11-15T02:38:07;4.40;99.90
14682;DHT22;7429;52.498;13.480;2022-11-15T02:41:38;4.40;99.90
14682;DHT22;7429;52.498;13.480;2022-11-15T02:45:06;4.40;99.90
14682;DHT22;7429;52.498;13.480;2022-11-15T02:48:31;4.30;99.90
14682;DHT22;7429;52.498;13.480;2022-11-15T02:51:55;4.30;99.90
14682;DHT22;7429;52.498;13.480;2022-11-15T02:55:28;4.30;99.90
14682;DHT22;7429;52.498;13.480;2022-11-15T02:59:06;4.30;99.90
14682;DHT22;7429;52.498;13.480;2022-11-15T03:02:48;4.20;99.90
14682;DHT22;7429;52.498;13.480;2022-11-15T03:06:29;4.30;99.90
14682;DHT22;7429;52.498;13.480;2022-11-15T03:10:02;4.30;99.90
14682;DHT22;7429;52.498;13.480;2022-11-15T03:13:30;4.30;99.90
14682;DHT22;7429;52.498;13.480;2022-11-15T03:17:01;4.30;99.90
14682;DHT22;7429;52.498;13.480;2022-11-15T03:20:25;4.20;99.90
14682;DHT22;7429;52.498;13.480;2022-11-15T03:23:50;4.10;99.90
14682;DHT22;7429;52.498;13.480;2022-11-15T03:27:15;4.10;99.90
14682;DHT22;7429;52.498;13.480;2022-11-15T03:30:42;4.20;99.90
14682;DHT22;7429;52.498;13.480;2022-11-15T03:34:07;4.20;99.90
14682;DHT22;7429;52.498;13.480;2022-11-15T03:37:37;4.10;99.90
14682;DHT22;7429;52.498;13.480;2022-11-15T03:41:09;4.10;99.90
14682;DHT22;7429;52.498;13.480;2022-11-15T03:44:41;4.10;99.90
14682;DHT22;7429;52.498;13.480;2022-11-15T03:48:13;4.00;99.90
14682;DHT22;7429;52.498;13.480;2022-11-15T03:51:36;4.10;99.90
14682;DHT22;7429;52.498;13.480;2022-11-15T03:55:00;4.00;99.90
14682;DHT22;7429;52.498;13.480;2022-11-15T03:58:24;4.10;99.90
14682;DHT22;7429;52.498;13.480;2022-11-15T04:01:46;4.10;99.90
14682;DHT22;7429;52.498;13.480;2022-11-15T04:05:08;4.10;99.90
14682;DHT22;7429;52.498;13.480;2022-11-15T04:08:30;4.00;99.90
14682;DHT22;7429;52.498;13.480;2022-11-15T04:11:52;4.00;99.90
14682;DHT22;7429;52.498;13.480;2022-11-15T04:15:17;4.10;99.90
14682;DHT22;7429;52.498;13.480;2022-11-15T04:18:42;4.10;99.90
14682;DHT22;7429;52.498;13.480;2022-11-15T04:22:04;4.10;99.90
14682;DHT22;7429;52.498;13.480;2022-11-15T04:25:43;4.10;99.90
14682;DHT22;7429;52.498;13.480;2022-11-15T04:29:06;4.10;99.90
14682;DHT22;7429;52.498;13.480;2022-11-15T04:32:46;4.10;99.90
14682;DHT22;7429;52.498;13.480;2022-11-15T04:36:08;4.10;99.90
14682;DHT22;7429;52.498;13.480;2022-11-15T04:39:48;4.10;99.90
14682;DHT22;7429;52.498;13.480;2022-11-15T04:43:11;4.10;99.90
14682;DHT22;7429;52.498;13.480;2022-11-15T04:46:33;4.10;99.90
14682;DHT22;7429;52.498;13.480;2022-11-15T04:49:56;4.10;99.90
14682;DHT22;7429;52.498;13.480;2022-11-15T04:53:17;4.10;99.90
14682;DHT22;7429;52.498;13.480;2022-11-15T04:56:39;4.10;99.90
14682;DHT22;7429;52.498;13.480;2022-11-15T05:00:02;4.10;99.90
14682;DHT22;7429;52.498;13.480;2022-11-15T05:03:24;4.10;99.90
14682;DHT22;7429;52.498;13.480;2022-11-15T05:07:05;4.10;99.90
14682;DHT22;7429;52.498;13.480;2022-11-15T05:10:26;4.10;99.90
14682;DHT22;7429;52.498;13.480;2022-11-15T05:13:49;4.10;99.90
14682;DHT22;7429;52.498;13.480;2022-11-15T05:17:11;4.10;99.90
14682;DHT22;7429;52.498;13.480;2022-11-15T05:20:33;4.10;99.90
14682;DHT22;7429;52.498;13.480;2022-11-15T05:23:56;4.10;99.90
14682;DHT22;7429;52.498;13.480;2022-11-15T05:27:18;4.10;99.90
14682;DHT22;7429;52.498;13.480;2022-11-15T05:30:40;4.10;99.90
14682;DHT22;7429;52.498;13.480;2022-11-15T05:34:04;4.00;99.90
14682;DHT22;7429;52.498;13.480;2022-11-15T05:37:26;3.90;99.90
14682;DHT22;7429;52.498;13.480;2022-11-15T05:40:49;3.90;99.90
14682;DHT22;7429;52.498;13.480;2022-11-15T05:44:13;3.90;99.90
14682;DHT22;7429;52.498;13.480;2022-11-15T05:47:38;3.90;99.90
14682;DHT22;7429;52.498;13.480;2022-11-15T05:51:01;3.80;99.90
14682;DHT22;7429;52.498;13.480;2022-11-15T05:54:25;3.80;99.90
14682;DHT22;7429;52.498;13.480;2022-11-15T05:57:48;3.90;99.90
14682;DHT22;7429;52.498;13.480;2022-11-15T06:01:10;3.90;99.90
14682;DHT22;7429;52.498;13.480;2022-11-15T06:04:32;3.90;99.90
14682;DHT22;7429;52.498;13.480;2022-11-15T06:07:57;3.80;99.90
14682;DHT22;7429;52.498;13.480;2022-11-15T06:11:18;3.80;99.90
14682;DHT22;7429;52.498;13.480;2022-11-15T06:14:41;3.90;99.90
14682;DHT22;7429;52.498;13.480;2022-11-15T06:18:04;3.90;99.90
14682;DHT22;7429;52.498;13.480;2022-11-15T06:21:26;3.80;99.90
14682;DHT22;7429;52.498;13.480;2022-11-15T06:24:49;3.80;99.90
14682;DHT22;7429;52.498;13.480;2022-11-15T06:28:11;3.80;99.90
14682;DHT22;7429;52.498;13.480;2022-11-15T06:31:35;3.80;99.90
14682;DHT22;7429;52.498;13.480;2022-11-15T06:34:57;3.80;99.90
14682;DHT22;7429;52.498;13.480;2022-11-15T06:38:19;3.90;99.90
14682;DHT22;7429;52.498;13.480;2022-11-15T06:41:41;4.00;99.90
14682;DHT22;7429;52.498;13.480;2022-11-15T06:45:03;4.10;99.90
14682;DHT22;7429;52.498;13.480;2022-11-15T06:48:27;4.10;99.90
14682;DHT22;7429;52.498;13.480;2022-11-15T06:51:49;4.20;99.90
14682;DHT22;7429;52.498;13.480;2022-11-15T06:55:11;4.20;99.90
14682;DHT22;7429;52.498;13.480;2022-11-15T06:58:33;4.20;99.90
14682;DHT22;7429;52.498;13.480;2022-11-15T07:01:55;4.20;99.90
14682;DHT22;7429;52.498;13.480;2022-11-15T07:05:18;4.20;99.90
14682;DHT22;7429;52.498;13.480;2022-11-15T07:08:40;4.20;99.90
14682;DHT22;7429;52.498;13.480;2022-11-15T07:12:05;4.20;99.90
14682;DHT22;7429;52.498;13.480;2022-11-15T07:15:29;4.20;99.90
14682;DHT22;7429;52.498;13.480;2022-11-15T07:18:51;4.30;99.90
14682;DHT22;7429;52.498;13.480;2022-11-15T07:22:15;4.30;99.90
14682;DHT22;7429;52.498;13.480;2022-11-15T07:25:37;4.40;99.90
14682;DHT22;7429;52.498;13.480;2022-11-15T07:29:01;4.40;99.90
14682;DHT22;7429;52.498;13.480;2022-11-15T07:32:24;4.40;99.90
14682;DHT22;7429;52.498;13.480;2022-11-15T07:35:46;4.40;99.90
14682;DHT22;7429;52.498;13.480;2022-11-15T07:39:11;4.40;99.90
14682;DHT22;7429;52.498;13.480;2022-11-15T07:42:37;4.40;99.90
14682;DHT22;7429;52.498;13.480;2022-11-15T07:46:13;4.50;99.90
14682;DHT22;7429;52.498;13.480;2022-11-15T07:49:36;4.50;99.90
14682;DHT22;7429;52.498;13.480;2022-11-15T07:52:59;4.60;99.90
14682;DHT22;7429;52.498;13.480;2022-11-15T07:56:23;4.70;99.90
14682;DHT22;7429;52.498;13.480;2022-11-15T07:59:49;4.80;99.90
14682;DHT22;7429;52.498;13.480;2022-11-15T08:03:13;4.90;99.90
14682;DHT22;7429;52.498;13.480;2022-11-15T08:06:41;4.90;99.90
14682;DHT22;7429;52.498;13.480;2022-11-15T08:10:03;5.10;99.90
14682;DHT22;7429;52.498;13.480;2022-11-15T08:13:28;5.20;99.90
14682;DHT22;7429;52.498;13.480;2022-11-15T08:16:54;5.20;99.90
14682;DHT22;7429;52.498;13.480;2022-11-15T08:20:17;5.30;99.90
14682;DHT22;7429;52.498;13.480;2022-11-15T08:23:48;5.40;99.90
14682;DHT22;7429;52.498;13.480;2022-11-15T08:27:10;5.60;99.90
14682;DHT22;7429;52.498;13.480;2022-11-15T08:30:39;5.60;99.90
14682;DHT22;7429;52.498;13.480;2022-11-15T08:34:03;5.80;99.90
14682;DHT22;7429;52.498;13.480;2022-11-15T08:37:25;5.90;99.90
14682;DHT22;7429;52.498;13.480;2022-11-15T08:40:47;6.00;99.90
14682;DHT22;7429;52.498;13.480;2022-11-15T08:44:08;6.20;99.90
14682;DHT22;7429;52.498;13.480;2022-11-15T08:47:32;6.40;99.90
14682;DHT22;7429;52.498;13.480;2022-11-15T08:50:54;6.50;99.90
14682;DHT22;7429;52.498;13.480;2022-11-15T08:54:16;6.60;99.90
14682;DHT22;7429;52.498;13.480;2022-11-15T08:57:44;6.70;99.90
14682;DHT22;7429;52.498;13.480;2022-11-15T09:01:06;6.90;99.90
14682;DHT22;7429;52.498;13.480;2022-11-15T09:04:39;6.90;99.90
14682;DHT22;7429;52.498;13.480;2022-11-15T09:08:11;7.10;99.90
14682;DHT22;7429;52.498;13.480;2022-11-15T09:11:53;7.20;99.90
14682;DHT22;7429;52.498;13.480;2022-11-15T09:15:22;7.40;99.90
14682;DHT22;7429;52.498;13.480;2022-11-15T09:18:43;7.50;99.90
14682;DHT22;7429;52.498;13.480;2022-11-15T09:22:07;7.60;99.90
14682;DHT22;7429;52.498;13.480;2022-11-15T09:25:30;7.70;99.90
14682;DHT22;7429;52.498;13.480;2022-11-15T09:28:52;7.70;99.90
14682;DHT22;7429;52.498;13.480;2022-11-15T09:32:14;7.80;99.90
14682;DHT22;7429;52.498;13.480;2022-11-15T09:35:36;7.80;99.90
14682;DHT22;7429;52.498;13.480;2022-11-15T09:38:59;8.00;99.90
14682;DHT22;7429;52.498;13.480;2022-11-15T09:42:44;8.20;99.90
14682;DHT22;7429;52.498;13.480;2022-11-15T09:46:16;8.30;99.90
14682;DHT22;7429;52.498;13.480;2022-11-15T09:49:42;8.40;99.90
14682;DHT22;7429;52.498;13.480;2022-11-15T09:52:58;8.60;99.90
14682;DHT22;7429;52.498;13.480;2022-11-15T09:56:05;8.60;99.90
14682;DHT22;7429;52.498;13.480;2022-11-15T09:59:41;8.70;99.90
14682;DHT22;7429;52.498;13.480;2022-11-15T10:03:18;8.90;99.90
14682;DHT22;7429;52.498;13.480;2022-11-15T10:06:38;9.00;99.90
14682;DHT22;7429;52.498;13.480;2022-11-15T10:09:47;9.10;99.90
14682;DHT22;7429;52.498;13.480;2022-11-15T10:12:53;9.20;99.90
14682;DHT22;7429;52.498;13.480;2022-11-15T10:16:02;9.20;99.90
14682;DHT22;7429;52.498;13.480;2022-11-15T10:19:23;9.30;99.90
14682;DHT22;7429;52.498;13.480;2022-11-15T10:22:34;9.50;99.90
14682;DHT22;7429;52.498;13.480;2022-11-15T10:25:42;9.70;99.90
14682;DHT22;7429;52.498;13.480;2022-11-15T10:28:50;9.80;99.90
14682;DHT22;7429;52.498;13.480;2022-11-15T10:31:53;9.90;99.90
14682;DHT22;7429;52.498;13.480;2022-11-15T10:34:56;10.00;99.90
14682;DHT22;7429;52.498;13.480;2022-11-15T10:38:05;10.00;99.90
14682;DHT22;7429;52.498;13.480;2022-11-15T10:41:14;10.00;99.90
14682;DHT22;7429;52.498;13.480;2022-11-15T10:44:23;10.10;99.90
14682;DHT22;7429;52.498;13.480;2022-11-15T10:47:32;10.10;99.90
14682;DHT22;7429;52.498;13.480;2022-11-15T10:50:42;10.20;99.90
14682;DHT22;7429;52.498;13.480;2022-11-15T10:53:46;10.40;99.90
14682;DHT22;7429;52.498;13.480;2022-11-15T10:56:51;10.60;99.90
14682;DHT22;7429;52.498;13.480;2022-11-15T10:59:59;10.90;99.90
14682;DHT22;7429;52.498;13.480;2022-11-15T11:03:08;10.90;99.90
14682;DHT22;7429;52.498;13.480;2022-11-15T11:06:29;10.90;99.90
14682;DHT22;7429;52.498;13.480;2022-11-15T11:09:36;11.10;99.90
14682;DHT22;7429;52.498;13.480;2022-11-15T11:12:46;11.30;99.90
14682;DHT22;7429;52.498;13.480;2022-11-15T11:15:59;11.40;99.90
14682;DHT22;7429;52.498;13.480;2022-11-15T11:19:23;11.50;99.90
14682;DHT22;7429;52.498;13.480;2022-11-15T11:22:37;11.70;99.90
14682;DHT22;7429;52.498;13.480;2022-11-15T11:26:01;11.80;99.90
14682;DHT22;7429;52.498;13.480;2022-11-15T11:29:25;12.00;99.90
14682;DHT22;7429;52.498;13.480;2022-11-15T11:32:50;12.20;99.90
14682;DHT22;7429;52.498;13.480;2022-11-15T11:36:09;12.30;99.90
14682;DHT22;7429;52.498;13.480;2022-11-15T11:39:25;12.40;99.90
14682;DHT22;7429;52.498;13.480;2022-11-15T11:42:43;12.50;99.90
14682;DHT22;7429;52.498;13.480;2022-11-15T11:46:05;12.60;99.90
14682;DHT22;7429;52.498;13.480;2022-11-15T11:49:25;12.70;99.90
14682;DHT22;7429;52.498;13.480;2022-11-15T11:52:34;12.80;99.90
14682;DHT22;7429;52.498;13.480;2022-11-15T11:55:46;12.80;99.90
14682;DHT22;7429;52.498;13.480;2022-11-15T11:58:52;12.90;99.90
14682;DHT22;7429;52.498;13.480;2022-11-15T12:01:57;13.00;99.90
14682;DHT22;7429;52.498;13.480;2022-11-15T12:05:10;13.10;99.90
14682;DHT22;7429;52.498;13.480;2022-11-15T12:08:31;13.30;99.90
14682;DHT22;7429;52.498;13.480;2022-11-15T12:11:47;13.50;99.90
14682;DHT22;7429;52.498;13.480;2022-11-15T12:14:56;13.60;99.90
14682;DHT22;7429;52.498;13.480;2022-11-15T12:18:01;13.50;99.90
14682;DHT22;7429;52.498;13.480;2022-11-15T12:21:08;13.40;99.90
14682;DHT22;7429;52.498;13.480;2022-11-15T12:24:22;13.30;99.90
14682;DHT22;7429;52.498;13.480;2022-11-15T12:27:35;13.20;99.90
14682;DHT22;7429;52.498;13.480;2022-11-15T12:30:51;13.20;99.90
14682;DHT22;7429;52.498;13.480;2022-11-15T12:33:57;13.20;99.90
14682;DHT22;7429;52.498;13.480;2022-11-15T12:41:13;13.30;99.90
14682;DHT22;7429;52.498;13.480;2022-11-15T12:52:08;13.30;99.90
14682;DHT22;7429;52.498;13.480;2022-11-15T12:55:32;13.30;99.90
14682;DHT22;7429;52.498;13.480;2022-11-15T12:58:43;13.40;99.90
14682;DHT22;7429;52.498;13.480;2022-11-15T13:02:17;13.40;99.90
14682;DHT22;7429;52.498;13.480;2022-11-15T13:05:55;13.50;99.90
14682;DHT22;7429;52.498;13.480;2022-11-15T13:13:03;13.60;99.90
14682;DHT22;7429;52.498;13.480;2022-11-15T13:16:07;13.60;99.90
14682;DHT22;7429;52.498;13.480;2022-11-15T13:19:10;13.70;99.90
14682;DHT22;7429;52.498;13.480;2022-11-15T13:22:14;13.70;99.90
14682;DHT22;7429;52.498;13.480;2022-11-15T13:25:55;13.80;99.90
14682;DHT22;7429;52.498;13.480;2022-11-15T13:29:15;13.80;99.90
14682;DHT22;7429;52.498;13.480;2022-11-15T13:32:19;13.80;99.90
14682;DHT22;7429;52.498;13.480;2022-11-15T13:35:24;13.80;99.90
14682;DHT22;7429;52.498;13.480;2022-11-15T13:38:30;13.70;99.90
14682;DHT22;7429;52.498;13.480;2022-11-15T13:41:45;13.70;99.90
14682;DHT22;7429;52.498;13.480;2022-11-15T13:44:59;13.60;99.90
14682;DHT22;7429;52.498;13.480;2022-11-15T13:48:03;13.50;99.90
14682;DHT22;7429;52.498;13.480;2022-11-15T13:51:14;13.40;99.90
14682;DHT22;7429;52.498;13.480;2022-11-15T13:54:23;13.30;99.90
14682;DHT22;7429;52.498;13.480;2022-11-15T13:57:33;13.30;99.90
14682;DHT22;7429;52.498;13.480;2022-11-15T14:00:42;13.20;99.90
14682;DHT22;7429;52.498;13.480;2022-11-15T14:03:53;13.20;99.90
14682;DHT22;7429;52.498;13.480;2022-11-15T14:06:59;13.10;99.90
14682;DHT22;7429;52.498;13.480;2022-11-15T14:10:17;13.00;99.90
14682;DHT22;7429;52.498;13.480;2022-11-15T14:13:30;12.90;99.90
14682;DHT22;7429;52.498;13.480;2022-11-15T14:16:37;12.90;99.90
14682;DHT22;7429;52.498;13.480;2022-11-15T14:19:41;12.80;99.90
14682;DHT22;7429;52.498;13.480;2022-11-15T14:22:52;12.70;99.90
14682;DHT22;7429;52.498;13.480;2022-11-15T14:25:57;12.60;99.90
14682;DHT22;7429;52.498;13.480;2022-11-15T14:29:21;12.60;99.90
14682;DHT22;7429;52.498;13.480;2022-11-15T14:32:27;12.40;99.90
14682;DHT22;7429;52.498;13.480;2022-11-15T14:35:33;12.40;99.90
14682;DHT22;7429;52.498;13.480;2022-11-15T14:38:36;12.30;99.90
14682;DHT22;7429;52.498;13.480;2022-11-15T14:41:39;12.30;99.90
14682;DHT22;7429;52.498;13.480;2022-11-15T14:44:42;12.30;99.90
14682;DHT22;7429;52.498;13.480;2022-11-15T14:47:48;12.30;99.90
14682;DHT22;7429;52.498;13.480;2022-11-15T14:50:51;12.20;99.90
14682;DHT22;7429;52.498;13.480;2022-11-15T14:53:54;12.20;99.90
14682;DHT22;7429;52.498;13.480;2022-11-15T14:56:57;12.10;99.90
14682;DHT22;7429;52.498;13.480;2022-11-15T15:00:01;12.00;99.90
14682;DHT22;7429;52.498;13.480;2022-11-15T15:03:15;11.90;99.90
14682;DHT22;7429;52.498;13.480;2022-11-15T15:06:18;11.80;99.90
14682;DHT22;7429;52.498;13.480;2022-11-15T15:09:21;11.80;99.90
14682;DHT22;7429;52.498;13.480;2022-11-15T15:12:24;11.70;99.90
14682;DHT22;7429;52.498;13.480;2022-11-15T15:15:31;11.60;99.90
14682;DHT22;7429;52.498;13.480;2022-11-15T15:18:37;11.60;99.90
14682;DHT22;7429;52.498;13.480;2022-11-15T15:21:40;11.50;99.90
14682;DHT22;7429;52.498;13.480;2022-11-15T15:24:44;11.40;99.90
14682;DHT22;7429;52.498;13.480;2022-11-15T15:27:48;11.30;99.90
14682;DHT22;7429;52.498;13.480;2022-11-15T15:30:52;11.20;99.90
14682;DHT22;7429;52.498;13.480;2022-11-15T15:34:00;11.10;99.90
14682;DHT22;7429;52.498;13.480;2022-11-15T15:37:21;11.00;99.90
14682;DHT22;7429;52.498;13.480;2022-11-15T15:40:28;11.00;99.90
14682;DHT22;7429;52.498;13.480;2022-11-15T15:43:32;10.90;99.90
14682;DHT22;7429;52.498;13.480;2022-11-15T15:46:36;10.90;99.90
14682;DHT22;7429;52.498;13.480;2022-11-15T15:49:41;10.70;99.90
14682;DHT22;7429;52.498;13.480;2022-11-15T15:52:44;10.60;99.90
14682;DHT22;7429;52.498;13.480;2022-11-15T15:55:47;10.50;99.90
14682;DHT22;7429;52.498;13.480;2022-11-15T15:58:50;10.50;99.90
14682;DHT22;7429;52.498;13.480;2022-11-15T16:01:54;10.30;99.90
14682;DHT22;7429;52.498;13.480;2022-11-15T16:04:58;10.30;99.90
14682;DHT22;7429;52.498;13.480;2022-11-15T16:08:03;10.30;99.90
14682;DHT22;7429;52.498;13.480;2022-11-15T16:11:07;10.20;99.90
14682;DHT22;7429;52.498;13.480;2022-11-15T16:14:11;10.20;99.90
14682;DHT22;7429;52.498;13.480;2022-11-15T16:17:17;10.20;99.90
14682;DHT22;7429;52.498;13.480;2022-11-15T16:20:33;10.10;99.90
14682;DHT22;7429;52.498;13.480;2022-11-15T16:23:37;10.00;99.90
14682;DHT22;7429;52.498;13.480;2022-11-15T16:26:41;10.00;99.90
14682;DHT22;7429;52.498;13.480;2022-11-15T16:29:45;10.00;99.90
14682;DHT22;7429;52.498;13.480;2022-11-15T16:32:48;10.00;99.90
14682;DHT22;7429;52.498;13.480;2022-11-15T16:35:52;10.00;99.90
14682;DHT22;7429;52.498;13.480;2022-11-15T16:38:56;9.90;99.90
14682;DHT22;7429;52.498;13.480;2022-11-15T16:41:59;9.80;99.90
14682;DHT22;7429;52.498;13.480;2022-11-15T16:45:04;9.70;99.90
14682;DHT22;7429;52.498;13.480;2022-11-15T16:48:19;9.60;99.90
14682;DHT22;7429;52.498;13.480;2022-11-15T16:51:25;9.60;99.90
14682;DHT22;7429;52.498;13.480;2022-11-15T16:54:28;9.50;99.90
14682;DHT22;7429;52.498;13.480;2022-11-15T16:57:32;9.50;99.90
14682;DHT22;7429;52.498;13.480;2022-11-15T17:00:35;9.40;99.90
14682;DHT22;7429;52.498;13.480;2022-11-15T17:03:38;9.40;99.90
14682;DHT22;7429;52.498;13.480;2022-11-15T17:06:44;9.30;99.90
14682;DHT22;7429;52.498;13.480;2022-11-15T17:09:50;9.20;99.90
14682;DHT22;7429;52.498;13.480;2022-11-15T17:12:57;9.20;99.90
14682;DHT22;7429;52.498;13.480;2022-11-15T17:16:05;9.10;99.90
14682;DHT22;7429;52.498;13.480;2022-11-15T17:19:13;9.00;99.90
14682;DHT22;7429;52.498;13.480;2022-11-15T17:22:18;8.90;99.90
14682;DHT22;7429;52.498;13.480;2022-11-15T17:25:21;8.80;99.90
14682;DHT22;7429;52.498;13.480;2022-11-15T17:28:24;8.80;99.90
14682;DHT22;7429;52.498;13.480;2022-11-15T17:31:27;8.70;99.90
14682;DHT22;7429;52.498;13.480;2022-11-15T17:34:34;8.60;99.90
14682;DHT22;7429;52.498;13.480;2022-11-15T17:37:38;8.60;99.90
14682;DHT22;7429;52.498;13.480;2022-11-15T17:40:42;8.60;99.90
14682;DHT22;7429;52.498;13.480;2022-11-15T17:43:45;8.50;99.90
14682;DHT22;7429;52.498;13.480;2022-11-15T17:46:48;8.50;99.90
14682;DHT22;7429;52.498;13.480;2022-11-15T17:49:51;8.50;99.90
14682;DHT22;7429;52.498;13.480;2022-11-15T17:52:59;8.50;99.90
14682;DHT22;7429;52.498;13.480;2022-11-15T17:56:03;8.40;99.90
14682;DHT22;7429;52.498;13.480;2022-11-15T17:59:08;8.40;99.90
14682;DHT22;7429;52.498;13.480;2022-11-15T18:02:18;8.40;99.90
14682;DHT22;7429;52.498;13.480;2022-11-15T18:05:21;8.30;99.90
14682;DHT22;7429;52.498;13.480;2022-11-15T18:08:25;8.30;99.90
14682;DHT22;7429;52.498;13.480;2022-11-15T18:11:30;8.30;99.90
14682;DHT22;7429;52.498;13.480;2022-11-15T18:14:34;8.20;99.90
14682;DHT22;7429;52.498;13.480;2022-11-15T18:17:37;8.10;99.90
14682;DHT22;7429;52.498;13.480;2022-11-15T18:20:40;8.10;99.90
14682;DHT22;7429;52.498;13.480;2022-11-15T18:23:45;8.00;99.90
14682;DHT22;7429;52.498;13.480;2022-11-15T18:26:48;8.00;99.90
14682;DHT22;7429;52.498;13.480;2022-11-15T18:29:52;8.00;99.90
14682;DHT22;7429;52.498;13.480;2022-11-15T18:32:55;7.90;99.90
14682;DHT22;7429;52.498;13.480;2022-11-15T18:35:59;7.90;99.90
14682;DHT22;7429;52.498;13.480;2022-11-15T18:39:04;7.90;99.90
14682;DHT22;7429;52.498;13.480;2022-11-15T18:42:07;7.80;99.90
14682;DHT22;7429;52.498;13.480;2022-11-15T18:45:10;7.80;99.90
14682;DHT22;7429;52.498;13.480;2022-11-15T18:48:15;7.70;99.90
14682;DHT22;7429;52.498;13.480;2022-11-15T18:51:19;7.70;99.90
14682;DHT22;7429;52.498;13.480;2022-11-15T18:54:24;7.70;99.90
14682;DHT22;7429;52.498;13.480;2022-11-15T18:57:32;7.60;99.90
14682;DHT22;7429;52.498;13.480;2022-11-15T19:00:35;7.60;99.90
14682;DHT22;7429;52.498;13.480;2022-11-15T19:03:41;7.50;99.90
14682;DHT22;7429;52.498;13.480;2022-11-15T19:06:46;7.40;99.90
14682;DHT22;7429;52.498;13.480;2022-11-15T19:09:51;7.40;99.90
14682;DHT22;7429;52.498;13.480;2022-11-15T19:12:54;7.40;99.90
14682;DHT22;7429;52.498;13.480;2022-11-15T19:15:59;7.40;99.90
14682;DHT22;7429;52.498;13.480;2022-11-15T19:19:04;7.40;99.90
14682;DHT22;7429;52.498;13.480;2022-11-15T19:22:08;7.40;99.90
14682;DHT22;7429;52.498;13.480;2022-11-15T19:25:13;7.40;99.90
14682;DHT22;7429;52.498;13.480;2022-11-15T19:28:16;7.40;99.90
14682;DHT22;7429;52.498;13.480;2022-11-15T19:31:21;7.40;99.90
14682;DHT22;7429;52.498;13.480;2022-11-15T19:34:25;7.30;99.90
14682;DHT22;7429;52.498;13.480;2022-11-15T19:37:28;7.30;99.90
14682;DHT22;7429;52.498;13.480;2022-11-15T19:40:33;7.30;99.90
14682;DHT22;7429;52.498;13.480;2022-11-15T19:43:36;7.30;99.90
14682;DHT22;7429;52.498;13.480;2022-11-15T19:46:39;7.20;99.90
14682;DHT22;7429;52.498;13.480;2022-11-15T19:49:43;7.20;99.90
14682;DHT22;7429;52.498;13.480;2022-11-15T19:52:47;7.20;99.90
14682;DHT22;7429;52.498;13.480;2022-11-15T19:55:55;7.10;99.90
14682;DHT22;7429;52.498;13.480;2022-11-15T19:59:00;7.10;99.90
14682;DHT22;7429;52.498;13.480;2022-11-15T20:02:04;7.10;99.90
14682;DHT22;7429;52.498;13.480;2022-11-15T20:05:08;7.00;99.90
14682;DHT22;7429;52.498;13.480;2022-11-15T20:08:19;7.00;99.90
14682;DHT22;7429;52.498;13.480;2022-11-15T20:11:23;7.00;99.90
14682;DHT22;7429;52.498;13.480;2022-11-15T20:14:28;6.90;99.90
14682;DHT22;7429;52.498;13.480;2022-11-15T20:17:32;6.90;99.90
14682;DHT22;7429;52.498;13.480;2022-11-15T20:20:36;6.90;99.90
14682;DHT22;7429;52.498;13.480;2022-11-15T20:23:39;6.90;99.90
14682;DHT22;7429;52.498;13.480;2022-11-15T20:26:44;6.90;99.90
14682;DHT22;7429;52.498;13.480;2022-11-15T20:29:47;6.90;99.90
14682;DHT22;7429;52.498;13.480;2022-11-15T20:32:52;6.90;99.90
14682;DHT22;7429;52.498;13.480;2022-11-15T20:35:55;6.90;99.90
14682;DHT22;7429;52.498;13.480;2022-11-15T20:38:59;6.90;99.90
14682;DHT22;7429;52.498;13.480;2022-11-15T20:42:04;6.90;99.90
14682;DHT22;7429;52.498;13.480;2022-11-15T20:45:08;6.80;99.90
14682;DHT22;7429;52.498;13.480;2022-11-15T20:48:11;6.80;99.90
14682;DHT22;7429;52.498;13.480;2022-11-15T20:51:16;6.70;99.90
14682;DHT22;7429;52.498;13.480;2022-11-15T20:54:20;6.80;99.90
14682;DHT22;7429;52.498;13.480;2022-11-15T20:57:24;6.80;99.90
14682;DHT22;7429;52.498;13.480;2022-11-15T21:00:27;6.90;99.90
14682;DHT22;7429;52.498;13.480;2022-11-15T21:03:31;6.90;99.90
14682;DHT22;7429;52.498;13.480;2022-11-15T21:06:34;6.80;99.90